Time;durP1;ratioP1;P1;durP2;ratioP2;P2;SDS_P1;SDS_P2;PMS_P1;PMS_P2;Temp;Humidity;BMP_temperature;BMP_pressure;BME280_temperature;BME280_humidity;BME280_pressure;Samples;Min_cycle;Max_cycle;Signal;HPM_P1;HPM_P2
2023/09/24 00:02:09;574011.00;1.91;989.37;0.00;0.00;0.62;;;;;16.80;1.00;;;;;;2252030;61;926;-88
2023/09/24 00:04:36;316199.00;1.05;545.76;0.00;0.00;0.62;;;;;16.40;1.00;;;;;;2251944;61;1051;-88
2023/09/24 00:07:05;277067.00;0.92;478.49;0.00;0.00;0.62;;;;;16.30;1.00;;;;;;2251942;61;920;-87
2023/09/24 00:09:33;410455.00;1.37;707.78;0.00;0.00;0.62;;;;;16.30;1.00;;;;;;2251879;61;1314;-87
2023/09/24 00:14:31;1120444.00;3.73;1947.02;0.00;0.00;0.62;;;;;16.30;1.00;;;;;;2254001;61;1290;-89
2023/09/24 00:17:00;95180.00;0.32;165.25;0.00;0.00;0.62;;;;;15.60;1.00;;;;;;2252704;61;1525;-89
2023/09/24 00:19:27;0.00;0.00;0.62;0.00;0.00;0.62;;;;;15.20;1.00;;;;;;2252597;61;1615;-89
2023/09/24 00:21:54;208872.00;0.70;361.19;0.00;0.00;0.62;;;;;15.40;1.00;;;;;;2252570;61;1740;-90
2023/09/24 00:24:23;113130.00;0.38;196.23;0.00;0.00;0.62;;;;;15.50;1.00;;;;;;2251989;61;945;-89
2023/09/24 00:29:19;962809.00;3.21;1666.71;13920.00;0.05;24.74;;;;;15.10;1.00;;;;;;2253928;61;1633;-87
2023/09/24 00:31:46;158092.00;0.53;273.75;0.00;0.00;0.62;;;;;15.30;1.00;;;;;;2251989;61;973;-88
2023/09/24 00:34:13;282485.00;0.94;487.81;45965.00;0.15;80.21;;;;;15.40;1.00;;;;;;2251774;61;1936;-87
2023/09/24 00:36:40;630470.00;2.10;1086.86;111941.00;0.37;194.18;;;;;15.00;1.00;;;;;;2251732;61;1087;-89
2023/09/24 00:41:38;887793.00;2.96;1534.69;0.00;0.00;0.62;;;;;14.20;1.00;;;;;;2253470;61;1426;-89
2023/09/24 00:44:06;148187.00;0.49;256.68;709.00;0.00;1.85;;;;;14.40;1.00;;;;;;2251830;61;2358;-91
2023/09/24 00:46:33;153963.00;0.51;266.64;0.00;0.00;0.62;;;;;14.50;1.00;;;;;;2251705;61;1766;-88
2023/09/24 00:49:00;117349776.00;391.17;65459832.00;117146736.00;390.49;65120332.00;;;;;14.50;1.00;;;;;;2251788;61;1002;-88
2023/09/24 00:51:29;412543.00;1.38;711.37;15521.00;0.05;27.51;;;;;14.70;1.00;;;;;;2251520;61;1773;-90
2023/09/24 00:53:57;381546.00;1.27;658.08;38924.00;0.13;68.03;;;;;14.90;1.00;;;;;;2251560;61;2004;-86
2023/09/24 01:06:35;1065305.00;3.55;1848.49;0.00;0.00;0.62;;;;;15.30;1.00;;;;;;2253383;61;1310;-88
2023/09/24 01:09:05;148725.00;0.50;257.61;0.00;0.00;0.62;;;;;15.40;1.00;;;;;;2251654;61;1022;-88
2023/09/24 01:11:33;124274.00;0.41;215.45;0.00;0.00;0.62;;;;;15.50;1.00;;;;;;2251537;61;1742;-89
2023/09/24 01:14:00;70067.00;0.23;121.88;0.00;0.00;0.62;;;;;15.70;1.00;;;;;;2251562;61;1924;-85
2023/09/24 01:16:27;151826.00;0.51;262.95;0.00;0.00;0.62;;;;;15.50;1.00;;;;;;2251548;61;1012;-87
2023/09/24 01:18:54;192269.00;0.64;332.61;0.00;0.00;0.62;;;;;15.20;1.00;;;;;;2261275;40;3738;-87
2023/09/24 01:21:21;691655.00;2.31;1192.77;0.00;0.00;0.62;;;;;14.90;1.00;;;;;;2251431;61;1716;-88
2023/09/24 01:28:51;1365750.00;4.55;2392.95;46609.00;0.16;81.32;;;;;15.10;1.00;;;;;;2302045;40;3530;-88
2023/09/24 01:36:23;1387041.00;4.62;2432.31;0.00;0.00;0.62;;;;;15.90;1.00;;;;;;2291683;41;3601;-87
2023/09/24 01:38:50;182635.00;0.61;316.03;0.00;0.00;0.62;;;;;16.00;1.00;;;;;;2255454;61;1586;-88
2023/09/24 01:41:19;469922.00;1.57;810.06;0.00;0.00;0.62;;;;;15.60;1.00;;;;;;2255947;56;3794;-88
2023/09/24 01:43:46;280926.00;0.94;485.13;13207.00;0.04;23.50;;;;;15.40;1.00;;;;;;2302164;41;3656;-89
2023/09/24 01:46:15;335691.00;1.12;579.27;23660.00;0.08;41.61;;;;;15.70;1.00;;;;;;2255234;61;1603;-87
2023/09/24 01:51:15;1285673.00;4.29;2245.91;0.00;0.00;0.62;;;;;15.50;1.00;;;;;;2253134;61;1325;-91
2023/09/24 01:53:42;219804.00;0.73;380.01;0.00;0.00;0.62;;;;;15.50;1.00;;;;;;2251402;61;1929;-88
2023/09/24 01:56:10;111655.00;0.37;193.69;0.00;0.00;0.62;;;;;15.10;1.00;;;;;;2251640;61;1338;-88
2023/09/24 01:58:38;110760.00;0.37;192.14;0.00;0.00;0.62;;;;;14.80;1.00;;;;;;2251460;61;1265;-89
2023/09/24 02:01:05;211817.00;0.71;366.26;49983.00;0.17;87.16;;;;;15.10;1.00;;;;;;2260681;40;3633;-89
2023/09/24 02:11:07;778411.00;2.59;1343.50;0.00;0.00;0.62;;;;;15.70;1.00;;;;;;2249928;61;1275;-87
2023/09/24 02:16:06;995523.00;3.32;1724.54;0.00;0.00;0.62;;;;;16.10;1.00;;;;;;2252784;61;1413;-88
2023/09/24 02:18:33;15796.00;0.05;27.99;0.00;0.00;0.62;;;;;16.20;1.00;;;;;;2293113;41;3616;-87
2023/09/24 02:21:01;73096.00;0.24;127.11;0.00;0.00;0.62;;;;;16.70;1.00;;;;;;2256676;56;3845;-90
2023/09/24 02:26:00;1049654.00;3.50;1820.62;0.00;0.00;0.62;;;;;17.60;1.00;;;;;;2257174;61;1429;-87
2023/09/24 02:30:57;1218946.00;4.06;2124.51;0.00;0.00;0.62;;;;;17.60;1.00;;;;;;2253205;61;1373;-88
2023/09/24 02:33:24;240155.00;0.80;415.02;0.00;0.00;0.62;;;;;17.70;1.00;;;;;;2267297;40;3816;-87
2023/09/24 02:35:51;451870.00;1.51;779.00;0.00;0.00;0.62;;;;;17.90;1.00;;;;;;2285656;56;3718;-89
2023/09/24 02:38:22;218471.00;0.73;377.71;0.00;0.00;0.62;;;;;18.10;1.00;;;;;;2259580;56;3744;-87
2023/09/24 02:40:49;142175.00;0.47;246.32;0.00;0.00;0.62;;;;;18.30;1.00;;;;;;2252418;61;1755;-89
2023/09/24 02:43:16;146220.00;0.49;253.29;0.00;0.00;0.62;;;;;18.30;1.00;;;;;;2251322;61;937;-88
2023/09/24 02:45:44;170038.00;0.57;294.33;0.00;0.00;0.62;;;;;18.30;1.00;;;;;;2251091;61;1076;-89
2023/09/24 02:48:13;110469.00;0.37;191.64;0.00;0.00;0.62;;;;;18.10;1.00;;;;;;2251349;61;1103;-88
2023/09/24 02:50:41;190934.00;0.64;330.32;0.00;0.00;0.62;;;;;17.40;1.00;;;;;;2251322;61;1363;-86
2023/09/24 02:55:40;822069.00;2.74;1419.64;0.00;0.00;0.62;;;;;16.60;1.00;;;;;;2253192;61;1195;-89
2023/09/24 02:58:08;293845.00;0.98;507.34;27931.00;0.09;49.00;;;;;16.30;1.00;;;;;;2251334;61;1127;-86
2023/09/24 03:00:36;75257.00;0.25;130.84;0.00;0.00;0.62;;;;;16.20;1.00;;;;;;2251407;61;1377;-85
2023/09/24 03:03:06;33393.00;0.11;58.46;0.00;0.00;0.62;;;;;15.70;1.00;;;;;;2251553;61;1339;-86
2023/09/24 03:05:34;27611.00;0.09;48.45;0.00;0.00;0.62;;;;;15.20;1.00;;;;;;2251521;61;1083;-87
2023/09/24 03:08:02;435858.00;1.45;751.46;73123.00;0.24;127.16;;;;;14.80;1.00;;;;;;2251526;61;1027;-89
2023/09/24 03:10:31;224963.00;0.75;388.88;59192.00;0.20;103.08;;;;;14.40;1.00;;;;;;2251463;61;1536;-88
2023/09/24 03:12:59;128464.00;0.43;222.68;17842.00;0.06;31.53;;;;;14.20;1.00;;;;;;2251562;61;1917;-88
2023/09/24 03:15:27;4097.00;0.01;7.72;0.00;0.00;0.62;;;;;14.10;1.00;;;;;;2251577;61;1040;-86
2023/09/24 03:17:55;46820.00;0.16;81.69;0.00;0.00;0.62;;;;;14.00;1.00;;;;;;2251519;61;1071;-86
2023/09/24 03:20:22;0.00;0.00;0.62;0.00;0.00;0.62;;;;;14.00;1.00;;;;;;2251420;61;1310;-84
2023/09/24 03:22:53;2632.00;0.01;5.18;0.00;0.00;0.62;;;;;13.80;1.00;;;;;;2251352;61;1486;-86
2023/09/24 03:25:22;52948.00;0.18;92.28;0.00;0.00;0.62;;;;;13.90;1.00;;;;;;2251463;61;1044;-85
2023/09/24 03:27:50;229604.00;0.77;396.87;84017.00;0.28;145.98;;;;;13.70;1.00;;;;;;2251446;61;1066;-87
2023/09/24 03:30:18;141961.00;0.47;245.95;0.00;0.00;0.62;;;;;13.50;1.00;;;;;;2251439;61;1376;-85
2023/09/24 03:32:46;50416.00;0.17;87.91;0.00;0.00;0.62;;;;;13.60;1.00;;;;;;2251463;61;2013;-86
2023/09/24 03:35:13;58287.00;0.19;101.52;0.00;0.00;0.62;;;;;13.70;1.00;;;;;;2251429;61;1280;-86
2023/09/24 03:37:43;68044.00;0.23;118.38;0.00;0.00;0.62;;;;;13.60;1.00;;;;;;2251389;61;1107;-89
2023/09/24 03:40:14;29458.00;0.10;51.64;0.00;0.00;0.62;;;;;13.60;1.00;;;;;;2251015;61;1388;-88
2023/09/24 03:42:42;18739.00;0.06;33.09;0.00;0.00;0.62;;;;;13.50;1.00;;;;;;2251237;61;1172;-88
2023/09/24 03:45:10;22344.00;0.07;39.33;0.00;0.00;0.62;;;;;13.30;1.00;;;;;;2251493;61;1197;-86
2023/09/24 03:47:38;65325.00;0.22;113.68;0.00;0.00;0.62;;;;;13.20;1.00;;;;;;2251292;61;1748;-87
2023/09/24 03:50:08;68475.00;0.23;119.13;0.00;0.00;0.62;;;;;13.20;1.00;;;;;;2251422;61;1749;-85
2023/09/24 03:52:35;40548.00;0.14;70.84;0.00;0.00;0.62;;;;;13.00;1.00;;;;;;2251442;61;1143;-88
2023/09/24 03:55:02;49428.00;0.16;86.20;0.00;0.00;0.62;;;;;13.10;1.00;;;;;;2251424;61;1940;-86
2023/09/24 03:57:30;0.00;0.00;0.62;0.00;0.00;0.62;;;;;13.20;1.00;;;;;;2251359;61;1254;-88
2023/09/24 03:59:59;194456.00;0.65;336.38;0.00;0.00;0.62;;;;;13.00;1.00;;;;;;2251398;61;1233;-87
2023/09/24 04:02:27;56354.00;0.19;98.17;0.00;0.00;0.62;;;;;12.90;1.00;;;;;;2251449;61;1523;-86
2023/09/24 04:04:54;198529.00;0.66;343.39;0.00;0.00;0.62;;;;;13.00;1.00;;;;;;2251567;61;1100;-87
2023/09/24 04:07:21;52102.00;0.17;90.82;0.00;0.00;0.62;;;;;13.10;1.00;;;;;;2251401;61;947;-87
2023/09/24 04:09:49;0.00;0.00;0.62;0.00;0.00;0.62;;;;;13.20;1.00;;;;;;2251418;61;1252;-88
2023/09/24 04:12:16;0.00;0.00;0.62;0.00;0.00;0.62;;;;;13.00;1.00;;;;;;2252156;61;1067;-88
2023/09/24 04:14:44;0.00;0.00;0.62;0.00;0.00;0.62;;;;;12.80;1.00;;;;;;2252164;61;1996;-86
2023/09/24 04:17:11;127076.00;0.42;220.29;0.00;0.00;0.62;;;;;12.90;1.00;;;;;;2251964;61;1083;-88
2023/09/24 04:19:38;140097.00;0.47;242.74;49725.00;0.17;86.71;;;;;12.80;1.00;;;;;;2252080;61;1326;-87
2023/09/24 04:24:36;566487.00;1.89;976.39;0.00;0.00;0.62;;;;;12.70;1.00;;;;;;2257879;61;1700;-88
2023/09/24 04:27:03;49333.00;0.16;86.03;0.00;0.00;0.62;;;;;12.70;1.00;;;;;;2256019;61;1758;-87
2023/09/24 04:29:29;0.00;0.00;0.62;0.00;0.00;0.62;;;;;12.90;1.00;;;;;;2256039;61;1299;-87
2023/09/24 04:31:58;103034.00;0.34;178.81;0.00;0.00;0.62;;;;;12.80;1.00;;;;;;2256039;61;1568;-86
2023/09/24 04:34:25;51720.00;0.17;90.16;0.00;0.00;0.62;;;;;12.80;1.00;;;;;;2255974;61;1923;-86
2023/09/24 04:36:52;0.00;0.00;0.62;0.00;0.00;0.62;;;;;12.90;1.00;;;;;;2256022;61;954;-87
2023/09/24 04:39:19;119554.00;0.40;207.31;0.00;0.00;0.62;;;;;12.90;1.00;;;;;;2255954;61;1292;-86
2023/09/24 04:41:47;0.00;0.00;0.62;0.00;0.00;0.62;;;;;13.00;1.00;;;;;;2255926;61;1587;-86
2023/09/24 04:44:14;34296.00;0.11;60.02;0.00;0.00;0.62;;;;;12.90;1.00;;;;;;2255981;61;1102;-86
2023/09/24 04:46:41;97256.00;0.32;168.84;0.00;0.00;0.62;;;;;12.80;1.00;;;;;;2255987;61;1144;-85
2023/09/24 04:49:09;178097.00;0.59;308.21;0.00;0.00;0.62;;;;;12.80;1.00;;;;;;2255985;61;1078;-87
2023/09/24 04:51:36;276596.00;0.92;477.68;0.00;0.00;0.62;;;;;12.80;1.00;;;;;;2255966;61;1583;-87
2023/09/24 04:54:03;104659.00;0.35;181.61;0.00;0.00;0.62;;;;;12.70;1.00;;;;;;2256025;61;1925;-88
2023/09/24 04:56:31;13699.00;0.05;24.36;0.00;0.00;0.62;;;;;12.70;1.00;;;;;;2255979;61;986;-88
2023/09/24 04:58:58;120482.00;0.40;208.91;0.00;0.00;0.62;;;;;12.60;1.00;;;;;;2255927;61;1224;-86
2023/09/24 05:01:25;186423.00;0.62;322.55;0.00;0.00;0.62;;;;;12.70;1.00;;;;;;2260555;41;3708;-85
2023/09/24 05:03:52;238241.00;0.79;411.73;0.00;0.00;0.62;;;;;12.50;1.00;;;;;;2251902;61;1153;-88
2023/09/24 05:06:20;30897.00;0.10;54.14;0.00;0.00;0.62;;;;;12.40;1.00;;;;;;2251994;61;1118;-86
2023/09/24 05:08:48;100727.00;0.34;174.83;0.00;0.00;0.62;;;;;12.40;1.00;;;;;;2252027;61;987;-84
2023/09/24 05:11:15;51131.00;0.17;89.14;0.00;0.00;0.62;;;;;12.50;1.00;;;;;;2251896;61;1298;-86
2023/09/24 05:13:41;274789.00;0.92;474.58;20611.00;0.07;36.33;;;;;12.40;1.00;;;;;;2251883;61;2005;-86
2023/09/24 05:16:09;162385.00;0.54;281.15;0.00;0.00;0.62;;;;;12.40;1.00;;;;;;2251995;61;984;-86
2023/09/24 05:18:36;0.00;0.00;0.62;0.00;0.00;0.62;;;;;12.50;1.00;;;;;;2251907;61;1192;-86
2023/09/24 05:21:06;261080.00;0.87;451.01;0.00;0.00;0.62;;;;;12.50;1.00;;;;;;2251909;61;1298;-87
2023/09/24 05:23:34;104199.00;0.35;180.82;11191.00;0.04;20.01;;;;;12.50;1.00;;;;;;2251870;61;1147;-86
2023/09/24 05:26:01;166634.00;0.56;288.47;0.00;0.00;0.62;;;;;12.50;1.00;;;;;;2251783;61;1309;-86
2023/09/24 05:28:28;274061.00;0.91;473.33;23573.00;0.08;41.46;;;;;12.70;1.00;;;;;;2251808;61;1656;-86
2023/09/24 05:30:57;209793.00;0.70;362.78;0.00;0.00;0.62;;;;;12.70;1.00;;;;;;2251877;61;1257;-87
2023/09/24 05:33:23;59917.00;0.20;104.33;0.00;0.00;0.62;;;;;12.80;1.00;;;;;;2251767;61;2009;-87
2023/09/24 05:35:51;169485.00;0.56;293.38;0.00;0.00;0.62;;;;;12.70;1.00;;;;;;2251822;61;1140;-86
2023/09/24 05:38:19;152706.00;0.51;264.47;43971.00;0.15;76.76;;;;;12.80;1.00;;;;;;2251795;61;1377;-86
2023/09/24 05:40:47;7223.00;0.02;13.14;0.00;0.00;0.62;;;;;12.70;1.00;;;;;;2251651;61;1387;-86
2023/09/24 05:43:14;254560.00;0.85;439.79;40291.00;0.13;70.39;;;;;12.80;1.00;;;;;;2251822;61;1135;-87
2023/09/24 05:45:47;0.00;0.00;0.62;0.00;0.00;0.62;;;;;12.90;1.00;;;;;;2251832;61;1172;-86
2023/09/24 05:48:15;0.00;0.00;0.62;0.00;0.00;0.62;;;;;13.50;1.00;;;;;;2251759;61;1551;-88
2023/09/24 05:50:42;8044.00;0.03;14.56;0.00;0.00;0.62;;;;;14.00;1.00;;;;;;2251698;61;1282;-86
2023/09/24 05:53:09;153853.00;0.51;266.45;0.00;0.00;0.62;;;;;14.80;1.00;;;;;;2251808;61;1055;-89
2023/09/24 05:55:36;119546.00;0.40;207.30;0.00;0.00;0.62;;;;;15.40;1.00;;;;;;2251760;61;1935;-87
2023/09/24 05:58:05;94752.00;0.32;164.51;0.00;0.00;0.62;;;;;15.70;1.00;;;;;;2251757;61;974;-88
2023/09/24 06:00:33;32667.00;0.11;57.20;0.00;0.00;0.62;;;;;16.00;1.00;;;;;;2251649;61;1396;-87
2023/09/24 06:03:00;0.00;0.00;0.62;0.00;0.00;0.62;;;;;16.50;1.00;;;;;;2251703;61;1171;-88
2023/09/24 06:05:28;110631.00;0.37;191.92;0.00;0.00;0.62;;;;;16.80;1.00;;;;;;2251802;61;982;-88
2023/09/24 06:07:55;0.00;0.00;0.62;0.00;0.00;0.62;;;;;17.20;1.00;;;;;;2251683;61;973;-88
2023/09/24 06:10:23;105200.00;0.35;182.55;0.00;0.00;0.62;;;;;17.60;1.00;;;;;;2251701;61;1281;-88
2023/09/24 06:12:53;26956.00;0.09;47.31;0.00;0.00;0.62;;;;;17.70;1.00;;;;;;2251675;61;1583;-87
2023/09/24 06:15:21;71773.00;0.24;124.82;0.00;0.00;0.62;;;;;17.70;1.00;;;;;;2251593;61;1922;-86
2023/09/24 06:17:50;142741.00;0.48;247.30;0.00;0.00;0.62;;;;;18.20;1.00;;;;;;2251729;61;1029;-88
2023/09/24 06:20:18;385693.00;1.29;665.21;158613.00;0.53;274.65;;;;;18.40;1.00;;;;;;2251563;61;1278;-85
2023/09/24 06:22:45;143343.00;0.48;248.33;0.00;0.00;0.62;;;;;18.60;1.00;;;;;;2251512;61;1685;-87
2023/09/24 06:25:12;388489.00;1.29;670.02;28042.00;0.09;49.19;;;;;18.90;1.00;;;;;;2251548;61;1649;-86
2023/09/24 06:27:41;0.00;0.00;0.62;0.00;0.00;0.62;;;;;19.10;1.00;;;;;;2264676;61;1158;-85
2023/09/24 06:30:12;62089.00;0.21;108.09;0.00;0.00;0.62;;;;;19.30;1.00;;;;;;2251646;61;1274;-88
2023/09/24 06:32:41;52828.00;0.18;92.08;0.00;0.00;0.62;;;;;19.60;1.00;;;;;;2251468;61;1138;-84
2023/09/24 06:35:09;23469.00;0.08;41.28;0.00;0.00;0.62;;;;;20.10;1.00;;;;;;2251527;61;2003;-86
2023/09/24 06:37:36;74583.00;0.25;129.68;0.00;0.00;0.62;;;;;20.50;1.00;;;;;;2251595;61;899;-85
2023/09/24 06:40:03;145603.00;0.49;252.23;0.00;0.00;0.62;;;;;20.60;1.00;;;;;;2251428;61;1373;-85
2023/09/24 06:42:31;65252.00;0.22;113.56;0.00;0.00;0.62;;;;;20.80;1.00;;;;;;2251531;61;1064;-88
2023/09/24 06:44:58;140952.00;0.47;244.21;0.00;0.00;0.62;;;;;21.10;1.00;;;;;;2251503;61;2252;-89
2023/09/24 06:47:25;51137.00;0.17;89.15;0.00;0.00;0.62;;;;;21.00;1.00;;;;;;2251533;61;1103;-88
2023/09/24 06:49:54;156484.00;0.52;270.98;0.00;0.00;0.62;;;;;20.80;1.00;;;;;;2251508;61;1273;-91
2023/09/24 06:52:21;14165.00;0.05;25.16;0.00;0.00;0.62;;;;;21.10;1.00;;;;;;2251648;61;1036;-88
2023/09/24 06:54:47;186738.00;0.62;323.09;0.00;0.00;0.62;;;;;21.50;1.00;;;;;;2255416;56;3744;-88
2023/09/24 06:57:14;367675.00;1.23;634.24;97353.00;0.32;169.00;;;;;22.00;1.00;;;;;;2256229;61;1162;-89
2023/09/24 06:59:42;91073.00;0.30;158.16;0.00;0.00;0.62;;;;;22.10;1.00;;;;;;2254634;61;1402;-87
2023/09/24 07:04:50;40076.00;0.13;70.02;0.00;0.00;0.62;;;;;22.10;1.00;;;;;;2252053;61;1673;-85
2023/09/24 07:07:18;127610.00;0.43;221.21;0.00;0.00;0.62;;;;;22.10;1.00;;;;;;2251510;61;1755;-89
2023/09/24 07:09:47;202349.00;0.67;349.97;0.00;0.00;0.62;;;;;22.00;1.00;;;;;;2286459;41;3586;-88
2023/09/24 07:12:16;139689.00;0.47;242.03;0.00;0.00;0.62;;;;;21.80;1.00;;;;;;2251551;61;1055;-89
2023/09/24 07:14:43;33082.00;0.11;57.92;0.00;0.00;0.62;;;;;21.80;1.00;;;;;;2251594;61;2011;-86
2023/09/24 07:17:10;16579.00;0.06;29.35;0.00;0.00;0.62;;;;;21.80;1.00;;;;;;2251590;61;1241;-86
2023/09/24 07:19:37;38149.00;0.13;66.69;0.00;0.00;0.62;;;;;21.70;1.00;;;;;;2251406;61;1631;-86
2023/09/24 07:22:04;105563.00;0.35;183.17;0.00;0.00;0.62;;;;;21.80;1.00;;;;;;2251468;61;1114;-89
2023/09/24 07:24:32;163725.00;0.55;283.46;0.00;0.00;0.62;;;;;21.60;1.00;;;;;;2251444;61;1026;-87
2023/09/24 07:27:02;155128.00;0.52;268.64;0.00;0.00;0.62;;;;;21.70;1.00;;;;;;2251529;61;1466;-88
2023/09/24 07:29:29;0.00;0.00;0.62;0.00;0.00;0.62;;;;;22.10;1.00;;;;;;2251594;61;1384;-87
2023/09/24 07:31:56;131317.00;0.44;227.60;0.00;0.00;0.62;;;;;22.70;1.00;;;;;;2251489;61;1032;-86
2023/09/24 07:34:24;0.00;0.00;0.62;0.00;0.00;0.62;;;;;23.30;1.00;;;;;;2251532;61;1915;-86
2023/09/24 07:36:51;228555.00;0.76;395.06;31505.00;0.11;55.19;;;;;23.00;1.00;;;;;;2251488;61;1207;-86
2023/09/24 07:39:19;149049.00;0.50;258.17;0.00;0.00;0.62;;;;;22.30;1.00;;;;;;2251352;61;1323;-88
2023/09/24 07:41:49;133055.00;0.44;230.60;0.00;0.00;0.62;;;;;22.10;1.00;;;;;;2251435;61;1265;-83
2023/09/24 07:44:18;0.00;0.00;0.62;0.00;0.00;0.62;;;;;22.40;1.00;;;;;;2251751;61;1131;-85
2023/09/24 07:46:45;68562.00;0.23;119.28;0.00;0.00;0.62;;;;;22.50;1.00;;;;;;2252092;61;1613;-90
2023/09/24 07:49:13;124788.00;0.42;216.34;0.00;0.00;0.62;;;;;22.80;1.00;;;;;;2252170;61;1314;-88
2023/09/24 07:51:39;75303.00;0.25;130.92;0.00;0.00;0.62;;;;;22.90;1.00;;;;;;2252142;61;1019;-87
2023/09/24 07:54:07;94866.00;0.32;164.71;0.00;0.00;0.62;;;;;22.50;1.00;;;;;;2252116;61;2009;-83
2023/09/24 07:56:38;12816.00;0.04;22.83;0.00;0.00;0.62;;;;;22.20;1.00;;;;;;2252178;61;1195;-85
2023/09/24 07:59:06;77992.00;0.26;135.57;0.00;0.00;0.62;;;;;22.40;1.00;;;;;;2252131;61;1051;-85
2023/09/24 08:01:34;0.00;0.00;0.62;0.00;0.00;0.62;;;;;22.00;1.00;;;;;;2252203;61;1183;-85
2023/09/24 08:04:01;143012.00;0.48;247.76;0.00;0.00;0.62;;;;;22.10;1.00;;;;;;2252199;61;1078;-86
2023/09/24 08:06:28;40369.00;0.13;70.53;0.00;0.00;0.62;;;;;22.10;1.00;;;;;;2252202;61;1114;-86
2023/09/24 08:08:56;59516.00;0.20;103.64;0.00;0.00;0.62;;;;;22.60;1.00;;;;;;2252054;61;1481;-89
2023/09/24 08:11:23;0.00;0.00;0.62;0.00;0.00;0.62;;;;;22.70;1.00;;;;;;2252213;61;1404;-88
2023/09/24 08:13:50;63041.00;0.21;109.73;0.00;0.00;0.62;;;;;23.20;1.00;;;;;;2252224;61;985;-88
2023/09/24 08:16:18;22773.00;0.08;40.07;0.00;0.00;0.62;;;;;23.10;1.00;;;;;;2252021;61;1928;-87
2023/09/24 08:18:45;45895.00;0.15;80.09;0.00;0.00;0.62;;;;;23.20;1.00;;;;;;2252078;61;1134;-85
2023/09/24 08:21:12;0.00;0.00;0.62;0.00;0.00;0.62;;;;;22.80;1.00;;;;;;2252053;61;1394;-88
2023/09/24 08:23:39;41027.00;0.14;71.67;0.00;0.00;0.62;;;;;23.40;1.00;;;;;;2252203;61;1130;-85
2023/09/24 08:26:06;208605.00;0.70;360.73;0.00;0.00;0.62;;;;;23.20;1.00;;;;;;2252091;61;1089;-87
2023/09/24 08:28:33;96152.00;0.32;166.93;0.00;0.00;0.62;;;;;22.80;1.00;;;;;;2252099;61;913;-85
2023/09/24 08:31:00;0.00;0.00;0.62;0.00;0.00;0.62;;;;;22.60;1.00;;;;;;2251997;61;1303;-85
2023/09/24 08:33:28;179266.00;0.60;310.23;0.00;0.00;0.62;;;;;22.10;1.00;;;;;;2252028;61;1106;-85
2023/09/24 08:35:55;122710.00;0.41;212.76;0.00;0.00;0.62;;;;;22.10;1.00;;;;;;2251987;61;2009;-85
2023/09/24 08:38:22;1487.00;0.00;3.20;0.00;0.00;0.62;;;;;22.00;1.00;;;;;;2252019;61;912;-87
2023/09/24 08:40:49;109104.00;0.36;189.28;0.00;0.00;0.62;;;;;21.70;1.00;;;;;;2251893;61;1485;-84
2023/09/24 08:43:17;735016.00;2.45;1268.02;120069.00;0.40;208.20;;;;;21.10;1.00;;;;;;2251967;61;1538;-86
2023/09/24 08:45:45;0.00;0.00;0.62;0.00;0.00;0.62;;;;;20.70;1.00;;;;;;2252063;61;1071;-85
2023/09/24 08:48:13;48107.00;0.16;83.91;0.00;0.00;0.62;;;;;20.40;1.00;;;;;;2251985;61;1051;-86
2023/09/24 08:50:43;0.00;0.00;0.62;0.00;0.00;0.62;;;;;20.50;1.00;;;;;;2252006;61;1333;-85
2023/09/24 08:53:11;130766.00;0.44;226.65;37151.00;0.12;64.96;;;;;20.80;1.00;;;;;;2251936;61;1138;-86
2023/09/24 08:55:40;32963.00;0.11;57.71;0.00;0.00;0.62;;;;;20.80;1.00;;;;;;2251742;61;1920;-87
2023/09/24 08:58:07;0.00;0.00;0.62;0.00;0.00;0.62;;;;;20.60;1.00;;;;;;2252024;61;2028;-87
2023/09/24 09:00:34;74780.00;0.25;130.02;0.00;0.00;0.62;;;;;20.80;1.00;;;;;;2251822;61;1576;-87
2023/09/24 09:03:03;36002.00;0.12;62.97;0.00;0.00;0.62;;;;;20.60;1.00;;;;;;2251939;61;1630;-86
2023/09/24 09:05:34;179406.00;0.60;310.47;0.00;0.00;0.62;;;;;20.60;1.00;;;;;;2251957;61;1254;-85
2023/09/24 09:08:04;0.00;0.00;0.62;0.00;0.00;0.62;;;;;20.50;1.00;;;;;;2251874;61;1101;-87
2023/09/24 09:10:33;0.00;0.00;0.62;0.00;0.00;0.62;;;;;20.20;1.00;;;;;;2252354;61;1369;-86
2023/09/24 09:13:05;27342.00;0.09;47.98;0.00;0.00;0.62;;;;;20.40;1.00;;;;;;2252640;61;1172;-85
2023/09/24 09:15:32;57648.00;0.19;100.41;0.00;0.00;0.62;;;;;20.40;1.00;;;;;;2252547;61;2018;-85
2023/09/24 09:17:59;153162.00;0.51;265.26;0.00;0.00;0.62;;;;;20.60;1.00;;;;;;2252560;61;1588;-85
2023/09/24 09:20:43;101057.00;0.34;175.40;0.00;0.00;0.62;;;;;20.50;1.00;;;;;;2252500;61;1305;-85
2023/09/24 09:23:13;73707.00;0.25;128.17;0.00;0.00;0.62;;;;;19.80;1.00;;;;;;2252578;61;1077;-87
2023/09/24 09:25:52;0.00;0.00;0.62;0.00;0.00;0.62;;;;;19.70;1.00;;;;;;2252532;61;1067;-86
2023/09/24 09:28:24;36909.00;0.12;64.54;0.00;0.00;0.62;;;;;19.90;1.00;;;;;;2252505;61;1193;-86
2023/09/24 09:31:02;16773.00;0.06;29.68;0.00;0.00;0.62;;;;;20.20;1.00;;;;;;2252367;61;1724;-86
2023/09/24 09:33:31;515903.00;1.72;889.21;121824.00;0.41;211.23;;;;;20.20;1.00;;;;;;2252555;61;1031;-85
2023/09/24 09:36:01;278168.00;0.93;480.39;4550.00;0.02;8.51;;;;;19.80;1.00;;;;;;2252345;61;1916;-85
2023/09/24 09:38:30;48797.00;0.16;85.11;0.00;0.00;0.62;;;;;19.50;1.00;;;;;;2252340;61;1546;-85
2023/09/24 09:41:00;230251.00;0.77;397.98;0.00;0.00;0.62;;;;;19.00;1.00;;;;;;2252396;61;1621;-85
2023/09/24 09:43:29;314785.00;1.05;543.33;18248.00;0.06;32.24;;;;;18.70;1.00;;;;;;2252412;61;1118;-87
2023/09/24 09:45:57;66528.00;0.22;115.76;0.00;0.00;0.62;;;;;18.80;1.00;;;;;;2252270;61;1037;-86
2023/09/24 09:48:30;279736.00;0.93;483.08;705.00;0.00;1.84;;;;;19.10;1.00;;;;;;2252387;61;1602;-86
2023/09/24 09:51:06;11822.00;0.04;21.11;0.00;0.00;0.62;;;;;19.10;1.00;;;;;;2252510;61;1362;-86
2023/09/24 09:53:36;178130.00;0.59;308.27;21385.00;0.07;37.67;;;;;19.20;1.00;;;;;;2252434;61;915;-86
2023/09/24 09:56:04;91374.00;0.30;158.68;23532.00;0.08;41.39;;;;;19.30;1.00;;;;;;2252388;61;1918;-87
2023/09/24 09:58:34;135432.00;0.45;234.70;0.00;0.00;0.62;;;;;19.80;1.00;;;;;;2252341;61;1462;-87
2023/09/24 10:01:01;177539.00;0.59;307.25;0.00;0.00;0.62;;;;;19.80;1.00;;;;;;2252318;61;1388;-86
2023/09/24 10:03:32;156923.00;0.52;271.74;0.00;0.00;0.62;;;;;19.30;1.00;;;;;;2252387;61;1145;-88
2023/09/24 10:06:00;262204.00;0.87;452.94;54494.00;0.18;94.96;;;;;19.20;1.00;;;;;;2252407;61;1123;-86
2023/09/24 10:08:43;220122.00;0.73;380.55;0.00;0.00;0.62;;;;;19.20;1.00;;;;;;2252024;61;1627;-86
2023/09/24 10:11:11;181674.00;0.61;314.37;0.00;0.00;0.62;;;;;19.40;1.00;;;;;;2252319;61;1337;-84
2023/09/24 10:13:49;0.00;0.00;0.62;0.00;0.00;0.62;;;;;19.40;1.00;;;;;;2252364;61;1153;-86
2023/09/24 10:16:37;0.00;0.00;0.62;0.00;0.00;0.62;;;;;19.40;1.00;;;;;;2252272;61;1997;-85
2023/09/24 10:19:06;36764.00;0.12;64.29;0.00;0.00;0.62;;;;;20.00;1.00;;;;;;2252434;61;1157;-84
2023/09/24 10:21:34;0.00;0.00;0.62;0.00;0.00;0.62;;;;;20.50;1.00;;;;;;2252352;61;1247;-86
2023/09/24 10:24:46;175197.00;0.58;303.22;5212.00;0.02;9.65;;;;;20.40;1.00;;;;;;2252372;61;1692;-86
2023/09/24 10:27:13;63305.00;0.21;110.19;0.00;0.00;0.62;;;;;20.20;1.00;;;;;;2252248;61;1678;-85
2023/09/24 10:30:05;0.00;0.00;0.62;0.00;0.00;0.62;;;;;20.00;1.00;;;;;;2252385;61;1420;-87
2023/09/24 10:32:44;0.00;0.00;0.62;0.00;0.00;0.62;;;;;20.30;1.00;;;;;;2252318;61;941;-85
2023/09/24 10:35:12;15347.00;0.05;27.21;0.00;0.00;0.62;;;;;20.00;1.00;;;;;;2252290;61;2001;-85
2023/09/24 10:37:59;185285.00;0.62;320.59;0.00;0.00;0.62;;;;;20.00;1.00;;;;;;2252309;61;1608;-87
2023/09/24 10:40:28;52261.00;0.17;91.10;0.00;0.00;0.62;;;;;20.10;1.00;;;;;;2252254;61;1470;-88
2023/09/24 10:43:20;144560.00;0.48;250.43;149.00;0.00;0.88;;;;;20.10;1.00;;;;;;2252270;61;1710;-87
2023/09/24 10:45:48;77271.00;0.26;134.32;0.00;0.00;0.62;;;;;20.10;1.00;;;;;;2252263;61;1036;-86
2023/09/24 10:48:16;42315.00;0.14;73.89;0.00;0.00;0.62;;;;;20.30;1.00;;;;;;2252308;61;1541;-86
2023/09/24 10:50:44;75539.00;0.25;131.33;0.00;0.00;0.62;;;;;20.00;1.00;;;;;;2252224;61;1336;-88
2023/09/24 10:53:12;0.00;0.00;0.62;0.00;0.00;0.62;;;;;19.90;1.00;;;;;;2252254;61;2113;-87
2023/09/24 10:55:41;3137.00;0.01;6.06;0.00;0.00;0.62;;;;;19.80;1.00;;;;;;2252199;61;2004;-89
2023/09/24 10:58:13;0.00;0.00;0.62;0.00;0.00;0.62;;;;;19.90;1.00;;;;;;2252290;61;1745;-88
2023/09/24 11:00:42;108520.00;0.36;188.28;0.00;0.00;0.62;;;;;20.00;1.00;;;;;;2260472;40;3765;-86
2023/09/24 11:03:13;33417.00;0.11;58.50;0.00;0.00;0.62;;;;;20.30;1.00;;;;;;2252253;61;1352;-86
2023/09/24 11:08:31;0.00;0.00;0.62;0.00;0.00;0.62;;;;;20.30;1.00;;;;;;2252590;61;1693;-86